Portada
METAR-TAF:

METAR-TAF

Aeroports :

Aeroport de Chingozi

Tete, Moçambic

latitud: 16-06S, longitud: 033-38E, altitud: 160 m

Observació

L'informe es va fer fa 54 minuts, a les 15:00 UTC
Vent 6 kt del Sud/Sud-Est
Temperatura 33°C
Humitat 36%
Pressió 1011 hPa
Visibilitat 10 km o més
Escasses núvols a una alçada de 2000 ft

METAR: FQTT 311500Z 15006KT 9999 FEW020 33/16 Q1011

Hora: 17:54 (15:54 UTC)

Pronòstic

L'informe es va fer fa 5 hores i 54 minuts, a les 10:00 UTC
Pronòstic vàlid del 31 a les 12 UTC al 01 a les 12 UTC
Vent 8 kt del Est/Nord-Est
Visibilitat 10 km o més
Núvols disperses a una alçada de 2000 ft
Evolucionant progressivament
l' 01 a les 06 UTC al 01 a les 08 UTC
Vent 10 kt del Est/Sud-Est

TAF: FQTT 311000Z 3112/0112 06008KT 9999 SCT020 TX35/3113Z TN24/0103Z BECMG 0106/0108 12010KT

Observacions i pronòstics meteorològics de més de 4000 aeroports (METAR i TAF).

Les estacions disponibles són els punts grocs i vermells al mapa.

Posi el ratolí al punt desitjat per veure el nom de l'estació.

Feu clic per veure les observacions i els pronòstics meteorològics.

Per canviar el mapa: feu clic els botons verds amb una creu de color negre per apropar; al botó verd amb un guió per allunyar la imatge; o en les fletxes verdes per a mapes adjacents.


METAR-TAF: